createdAt,value
2023-01-23T00:00:29.394Z,29.52
2023-01-23T00:03:21.982Z,42.80
2023-01-23T00:05:58.845Z,40.97
2023-01-23T00:08:32.686Z,36.75
2023-01-23T00:11:10.997Z,28.38
2023-01-23T00:13:43.549Z,37.92
2023-01-23T00:16:18.220Z,37.72
2023-01-23T00:18:51.225Z,30.77
2023-01-23T00:21:25.642Z,32.85
2023-01-23T00:23:59.263Z,37.33
2023-01-23T00:26:33.353Z,21.92
2023-01-23T00:29:05.960Z,28.38
2023-01-23T00:31:39.848Z,34.95
2023-01-23T00:34:14.836Z,46.25
2023-01-23T00:36:49.896Z,25.90
2023-01-23T00:39:22.818Z,45.67
2023-01-23T00:41:55.734Z,39.97
2023-01-23T00:44:31.214Z,43.50
2023-01-23T00:47:04.419Z,31.58
2023-01-23T00:49:37.007Z,32.42
2023-01-23T00:52:11.498Z,32.90
2023-01-23T00:54:44.123Z,21.65
2023-01-23T00:57:17.059Z,27.00
2023-01-23T00:59:49.626Z,33.53
2023-01-23T01:02:22.939Z,32.92
2023-01-23T01:04:55.586Z,24.45
2023-01-23T01:07:28.481Z,32.55
2023-01-23T01:10:01.160Z,27.58
2023-01-23T01:12:34.026Z,21.15
2023-01-23T01:15:07.208Z,24.02
2023-01-23T01:17:40.114Z,27.70
2023-01-23T01:20:12.833Z,29.90
2023-01-23T01:22:45.947Z,26.50
2023-01-23T01:25:19.022Z,23.45
2023-01-23T01:27:51.898Z,31.17
2023-01-23T01:30:27.434Z,20.63
2023-01-23T01:33:00.312Z,26.35
2023-01-23T01:35:33.785Z,29.70
2023-01-23T01:38:06.683Z,33.13
2023-01-23T01:40:39.270Z,21.48
2023-01-23T01:43:19.216Z,25.70
2023-01-23T01:46:01.018Z,21.27
2023-01-23T01:48:40.663Z,23.35
2023-01-23T01:51:15.206Z,27.98
2023-01-23T01:53:50.108Z,28.48
2023-01-23T01:56:23.190Z,31.95
2023-01-23T01:58:56.964Z,26.58
2023-01-23T02:01:30.665Z,35.50
2023-01-23T02:04:04.716Z,21.60
2023-01-23T02:06:37.508Z,35.35
2023-01-23T02:09:16.333Z,24.77
2023-01-23T02:11:49.786Z,35.47
2023-01-23T02:14:26.072Z,41.28
2023-01-23T02:17:01.482Z,35.88
2023-01-23T02:19:45.919Z,33.28
2023-01-23T02:22:37.800Z,43.33
2023-01-23T02:25:32.258Z,45.65
2023-01-23T02:28:05.273Z,34.92
2023-01-23T02:30:47.231Z,35.72
2023-01-23T02:33:20.205Z,31.48
2023-01-23T02:35:53.439Z,39.78
2023-01-23T02:38:29.938Z,33.25
2023-01-23T02:41:04.709Z,39.22
2023-01-23T02:43:37.903Z,42.97
2023-01-23T02:46:13.031Z,57.05
2023-01-23T02:48:46.062Z,29.38
2023-01-23T02:51:19.153Z,35.70
2023-01-23T02:53:51.708Z,32.35
2023-01-23T02:56:24.721Z,27.63
2023-01-23T02:59:15.990Z,27.05
2023-01-23T03:01:48.936Z,28.25
2023-01-23T03:04:21.632Z,30.33
2023-01-23T03:06:54.649Z,31.23
2023-01-23T03:09:27.584Z,36.85
2023-01-23T03:12:01.176Z,28.55
2023-01-23T03:14:35.182Z,28.00
2023-01-23T03:17:08.250Z,34.22
2023-01-23T03:19:42.228Z,23.90
2023-01-23T03:22:15.292Z,25.13
2023-01-23T03:24:48.016Z,29.13
2023-01-23T03:27:21.220Z,28.40
2023-01-23T03:30:13.617Z,26.10
2023-01-23T03:32:46.827Z,23.45
2023-01-23T03:35:22.296Z,20.73
2023-01-23T03:37:58.345Z,25.42
2023-01-23T03:40:49.313Z,29.13
2023-01-23T03:43:25.565Z,31.63
2023-01-23T03:45:59.275Z,38.40
2023-01-23T03:48:32.252Z,29.02
2023-01-23T03:51:05.077Z,24.88
2023-01-23T03:53:38.642Z,23.17
2023-01-23T03:56:11.438Z,27.80
2023-01-23T03:58:44.399Z,29.25
2023-01-23T04:01:18.765Z,30.55
2023-01-23T04:03:51.918Z,31.88
2023-01-23T04:06:29.000Z,27.42
2023-01-23T04:09:03.103Z,27.23
2023-01-23T04:11:35.904Z,33.17
2023-01-23T04:14:08.891Z,32.95
2023-01-23T04:16:41.378Z,24.30
2023-01-23T04:19:15.256Z,27.10
2023-01-23T04:21:48.968Z,24.08
2023-01-23T04:24:22.909Z,26.50
2023-01-23T04:26:55.692Z,35.72
2023-01-23T04:29:30.639Z,29.38
2023-01-23T04:32:03.460Z,33.47
2023-01-23T04:34:38.159Z,27.25
2023-01-23T04:37:11.270Z,27.85
2023-01-23T04:39:45.298Z,21.67
2023-01-23T04:42:19.087Z,30.27
2023-01-23T04:45:03.881Z,32.35
2023-01-23T04:47:38.983Z,28.23
2023-01-23T04:50:17.033Z,36.03
2023-01-23T04:52:51.785Z,47.30
2023-01-23T04:55:25.201Z,32.33
2023-01-23T04:57:57.999Z,31.15
2023-01-23T05:00:32.613Z,28.02
2023-01-23T05:03:07.366Z,23.30
2023-01-23T05:05:40.605Z,33.25
2023-01-23T05:08:13.531Z,27.98
2023-01-23T05:10:49.377Z,22.27
2023-01-23T05:13:24.022Z,35.15
2023-01-23T05:15:57.728Z,33.03
2023-01-23T05:18:30.365Z,28.77
2023-01-23T05:21:03.530Z,29.48
2023-01-23T05:23:37.686Z,41.75
2023-01-23T05:26:10.689Z,33.33
2023-01-23T05:28:43.214Z,35.60
2023-01-23T05:31:16.267Z,32.20
2023-01-23T05:34:03.237Z,34.03
2023-01-23T05:36:36.633Z,25.60
2023-01-23T05:39:09.338Z,37.35
2023-01-23T05:41:43.096Z,43.42
2023-01-23T05:44:41.569Z,71.25
2023-01-23T05:47:20.861Z,64.68
2023-01-23T05:49:54.706Z,37.05
2023-01-23T05:52:31.866Z,49.13
2023-01-23T05:55:04.725Z,38.25
2023-01-23T05:57:39.145Z,51.67
2023-01-23T06:00:13.699Z,34.72
2023-01-23T06:03:02.100Z,50.47
2023-01-23T06:05:55.729Z,41.22
2023-01-23T06:08:28.730Z,36.97
2023-01-23T06:11:03.191Z,31.83
2023-01-23T06:13:36.630Z,34.50
2023-01-23T06:16:10.911Z,35.80
2023-01-23T06:18:44.564Z,25.58
2023-01-23T06:21:21.026Z,26.55
2023-01-23T06:23:56.149Z,35.95
2023-01-23T06:26:29.176Z,38.20
2023-01-23T06:29:03.276Z,35.90
2023-01-23T06:31:36.384Z,31.73
2023-01-23T06:34:09.476Z,42.40
2023-01-23T06:36:48.350Z,38.80
2023-01-23T06:39:21.435Z,103.47
2023-01-23T06:41:56.839Z,58.63
2023-01-23T06:44:29.761Z,36.17
2023-01-23T06:47:02.715Z,43.63
2023-01-23T06:49:35.849Z,41.33
2023-01-23T06:52:09.268Z,39.53
2023-01-23T06:54:42.316Z,39.15
2023-01-23T06:57:14.889Z,40.75
2023-01-23T06:59:49.806Z,38.67
2023-01-23T07:02:24.748Z,25.08
2023-01-23T07:04:57.795Z,25.90
2023-01-23T07:07:31.507Z,45.38
2023-01-23T07:10:04.634Z,35.95
2023-01-23T07:12:37.472Z,32.25
2023-01-23T07:15:10.962Z,53.60
2023-01-23T07:17:45.921Z,44.90
2023-01-23T07:20:19.339Z,44.95
2023-01-23T07:22:59.187Z,38.88
2023-01-23T07:25:32.023Z,33.65
2023-01-23T07:28:04.748Z,35.70
2023-01-23T07:30:37.805Z,35.17
2023-01-23T07:33:10.773Z,31.00
2023-01-23T07:35:43.580Z,39.63
2023-01-23T07:38:16.699Z,37.72
2023-01-23T07:40:50.369Z,24.65
2023-01-23T07:43:23.786Z,38.92
2023-01-23T07:45:59.013Z,31.23
2023-01-23T07:48:31.566Z,39.95
2023-01-23T07:51:05.141Z,30.73
2023-01-23T07:53:37.702Z,31.60
2023-01-23T07:56:10.872Z,46.03
2023-01-23T07:58:43.408Z,38.17
2023-01-23T08:01:16.344Z,38.17
2023-01-23T08:03:48.807Z,26.27
2023-01-23T08:06:22.038Z,30.05
2023-01-23T08:08:54.614Z,30.25
2023-01-23T08:11:28.217Z,28.52
2023-01-23T08:14:00.790Z,43.42
2023-01-23T08:16:33.887Z,36.80
2023-01-23T08:19:07.527Z,40.92
2023-01-23T08:21:40.802Z,20.50
2023-01-23T08:24:14.397Z,25.92
2023-01-23T08:26:47.498Z,29.88
2023-01-23T08:29:20.045Z,33.42
2023-01-23T08:31:55.378Z,31.05
2023-01-23T08:34:27.950Z,36.10
2023-01-23T08:37:00.869Z,49.40
2023-01-23T08:39:33.510Z,51.25
2023-01-23T08:42:06.361Z,67.55
2023-01-23T08:44:39.511Z,43.80
2023-01-23T08:47:12.426Z,39.70
2023-01-23T08:49:44.911Z,51.97
2023-01-23T08:52:17.840Z,49.25
2023-01-23T08:54:50.406Z,61.80
2023-01-23T08:57:23.268Z,41.97
2023-01-23T08:59:55.979Z,38.92
2023-01-23T09:02:29.012Z,40.92
2023-01-23T09:05:02.055Z,35.90
2023-01-23T09:07:37.225Z,33.08
2023-01-23T09:10:10.203Z,37.03
2023-01-23T09:12:43.540Z,29.95
2023-01-23T09:15:16.168Z,35.65
2023-01-23T09:17:49.561Z,39.63
2023-01-23T09:20:22.976Z,37.10
2023-01-23T09:22:56.010Z,42.65
2023-01-23T09:25:28.681Z,38.25
2023-01-23T09:28:02.009Z,31.63
2023-01-23T09:30:34.584Z,32.80
2023-01-23T09:33:07.977Z,35.33
2023-01-23T09:35:40.930Z,31.33
2023-01-23T09:38:13.952Z,49.78
2023-01-23T09:40:49.496Z,45.63
2023-01-23T09:43:45.434Z,35.22
2023-01-23T09:46:29.296Z,42.65
2023-01-23T09:49:14.772Z,34.78
2023-01-23T09:51:51.528Z,28.60
2023-01-23T09:54:38.079Z,41.95
2023-01-23T09:57:15.164Z,31.63
2023-01-23T10:00:00.884Z,35.58
2023-01-23T10:02:34.445Z,32.85
2023-01-23T10:05:14.064Z,31.88
2023-01-23T10:07:52.463Z,37.08
2023-01-23T10:10:28.527Z,34.20
2023-01-23T10:13:17.681Z,30.48
2023-01-23T10:15:59.932Z,36.38
2023-01-23T10:18:54.601Z,40.40
2023-01-23T10:21:34.537Z,36.83
2023-01-23T10:24:10.077Z,30.65
2023-01-23T10:26:43.966Z,38.85
2023-01-23T10:29:22.476Z,27.58
2023-01-23T10:32:00.154Z,32.35
2023-01-23T10:34:38.093Z,30.88
2023-01-23T10:37:13.809Z,31.17
2023-01-23T10:39:51.322Z,39.22
2023-01-23T10:42:25.880Z,39.50
2023-01-23T10:44:58.479Z,34.35
2023-01-23T10:47:34.487Z,34.42
2023-01-23T10:50:08.328Z,32.58
2023-01-23T10:52:42.662Z,25.20
2023-01-23T10:55:24.057Z,40.03
2023-01-23T11:00:36.876Z,81.90
2023-01-23T11:03:22.011Z,136.27
2023-01-23T11:06:02.275Z,130.25
2023-01-23T11:08:39.219Z,118.55
2023-01-23T11:11:14.818Z,127.43
2023-01-23T11:13:49.294Z,106.05
2023-01-23T11:16:22.923Z,92.63
2023-01-23T11:19:03.226Z,93.15
2023-01-23T11:21:38.270Z,80.82
2023-01-23T11:24:24.946Z,72.90
2023-01-23T11:27:15.855Z,70.03
2023-01-23T11:29:55.605Z,58.42
2023-01-23T11:32:29.530Z,53.72
2023-01-23T11:35:13.898Z,55.80
2023-01-23T11:37:46.461Z,33.40
2023-01-23T11:40:20.379Z,28.10
2023-01-23T11:42:53.819Z,34.83
2023-01-23T11:45:29.528Z,24.88
2023-01-23T11:48:08.105Z,36.95
2023-01-23T11:50:55.363Z,39.00
2023-01-23T11:53:41.914Z,48.55
2023-01-23T11:56:15.594Z,29.08
2023-01-23T11:58:50.881Z,35.03
2023-01-23T12:01:47.082Z,34.13
2023-01-23T12:04:24.616Z,34.95
2023-01-23T12:07:00.568Z,35.50
2023-01-23T12:09:45.461Z,35.97
2023-01-23T12:12:27.682Z,36.78
2023-01-23T12:18:05.327Z,34.42
2023-01-23T12:20:52.980Z,37.92
2023-01-23T12:23:37.005Z,67.90
2023-01-23T12:26:14.522Z,40.70
2023-01-23T12:28:56.240Z,56.45
2023-01-23T12:31:41.431Z,44.72
2023-01-23T12:34:24.482Z,38.47
2023-01-23T12:37:29.024Z,38.75
2023-01-23T12:40:12.454Z,46.10
2023-01-23T12:45:21.275Z,52.63
2023-01-23T12:47:56.774Z,52.92
2023-01-23T12:50:48.873Z,49.80
2023-01-23T12:53:25.478Z,53.40
2023-01-23T12:56:06.720Z,39.08
2023-01-23T12:58:43.003Z,48.83
2023-01-23T13:01:22.396Z,53.45
2023-01-23T13:04:00.756Z,55.33
2023-01-23T13:06:40.766Z,46.33
2023-01-23T13:09:19.505Z,49.17
2023-01-23T13:12:13.299Z,59.67
2023-01-23T13:17:42.351Z,53.20
2023-01-23T13:20:50.286Z,43.17
2023-01-23T13:23:25.631Z,45.53
2023-01-23T13:26:25.446Z,70.15
2023-01-23T13:29:04.814Z,53.67
2023-01-23T13:31:50.773Z,56.28
2023-01-23T13:34:23.744Z,45.60
2023-01-23T13:37:16.206Z,44.72
2023-01-23T13:40:06.818Z,40.95
2023-01-23T13:42:39.607Z,45.38
2023-01-23T13:45:18.335Z,43.25
2023-01-23T14:22:05.023Z,44.45
2023-01-23T14:24:44.810Z,47.47
2023-01-23T14:27:29.468Z,51.28
2023-01-23T14:30:03.233Z,51.28
2023-01-23T14:32:35.982Z,49.35
2023-01-23T14:35:18.813Z,54.05
2023-01-23T14:37:52.994Z,46.53
2023-01-23T14:40:28.713Z,44.10
2023-01-23T14:43:08.169Z,42.60
2023-01-23T14:45:46.890Z,49.58
2023-01-23T14:48:21.151Z,54.95
2023-01-23T14:51:05.666Z,56.67
2023-01-23T14:53:41.913Z,45.03
2023-01-23T14:56:14.867Z,38.45
2023-01-23T14:58:47.523Z,39.90
2023-01-23T15:01:20.596Z,40.30
2023-01-23T15:04:03.879Z,47.03
2023-01-23T15:06:37.065Z,51.05
2023-01-23T15:09:18.647Z,67.53
2023-01-23T15:14:26.250Z,42.35
2023-01-23T15:17:00.045Z,53.78
2023-01-23T15:19:34.496Z,47.78
2023-01-23T15:22:07.317Z,50.08
2023-01-23T15:24:39.852Z,59.92
2023-01-23T15:27:41.804Z,70.22
2023-01-23T15:30:40.774Z,50.38
2023-01-23T15:33:24.715Z,46.92
2023-01-23T15:36:05.809Z,48.95
2023-01-23T15:38:38.709Z,44.92
2023-01-23T15:41:11.280Z,43.97
2023-01-23T15:43:44.176Z,66.07
2023-01-23T15:46:16.848Z,51.70
2023-01-23T15:48:49.786Z,51.25
2023-01-23T15:51:22.313Z,52.13
2023-01-23T15:53:55.163Z,56.28
2023-01-23T15:56:30.137Z,45.92
2023-01-23T15:59:06.912Z,56.38
2023-01-23T16:01:39.529Z,47.67
2023-01-23T16:04:12.440Z,45.35
2023-01-23T16:06:45.365Z,53.78
2023-01-23T16:09:21.648Z,45.90
2023-01-23T16:11:54.324Z,46.25
2023-01-23T16:14:27.897Z,42.15
2023-01-23T16:17:15.268Z,48.05
2023-01-23T16:19:50.904Z,47.33
2023-01-23T16:22:26.173Z,60.42
2023-01-23T16:24:59.143Z,40.83
2023-01-23T16:27:31.801Z,49.50
2023-01-23T16:30:04.897Z,51.70
2023-01-23T16:32:37.491Z,41.70
2023-01-23T16:35:12.352Z,54.72
2023-01-23T16:37:46.997Z,50.65
2023-01-23T16:40:23.887Z,53.15
2023-01-23T16:42:56.671Z,56.30
2023-01-23T16:45:30.972Z,50.10
2023-01-23T16:48:04.321Z,53.25
2023-01-23T16:50:38.571Z,46.58
2023-01-23T16:53:29.556Z,62.40
2023-01-23T16:56:03.192Z,55.50
2023-01-23T16:58:39.500Z,73.40
2023-01-23T17:01:15.704Z,52.25
2023-01-23T17:03:58.804Z,66.43
2023-01-23T17:06:31.857Z,50.35
2023-01-23T17:09:04.460Z,47.30
2023-01-23T17:11:38.922Z,46.45
2023-01-23T17:14:14.476Z,54.63
2023-01-23T17:16:48.859Z,53.33
2023-01-23T17:19:24.545Z,52.42
2023-01-23T17:21:58.854Z,55.20
2023-01-23T17:24:31.495Z,58.92
2023-01-23T17:27:04.555Z,45.50
2023-01-23T17:29:37.112Z,53.22
2023-01-23T17:32:28.605Z,63.17
2023-01-23T17:35:03.168Z,48.97
2023-01-23T17:37:36.342Z,58.97
2023-01-23T17:40:12.547Z,62.72
2023-01-23T17:42:45.581Z,65.63
2023-01-23T17:45:19.652Z,49.78
2023-01-23T17:47:53.667Z,53.38
2023-01-23T17:50:26.645Z,57.83
2023-01-23T17:52:59.477Z,46.53
2023-01-23T17:55:32.998Z,53.72
2023-01-23T17:58:05.942Z,51.97
2023-01-23T18:00:39.242Z,56.70
2023-01-23T18:03:13.465Z,59.75
2023-01-23T18:05:46.069Z,47.28
2023-01-23T18:08:20.177Z,48.20
2023-01-23T18:10:53.954Z,44.42
2023-01-23T18:13:56.317Z,60.85
2023-01-23T18:16:40.499Z,51.35
2023-01-23T18:19:19.749Z,49.10
2023-01-23T18:21:53.589Z,46.13
2023-01-23T18:24:28.651Z,46.85
2023-01-23T18:27:09.102Z,49.05
2023-01-23T18:29:42.190Z,54.55
2023-01-23T18:32:33.348Z,46.95
2023-01-23T18:35:44.660Z,52.42
2023-01-23T18:38:21.693Z,54.08
2023-01-23T18:40:57.174Z,50.35
2023-01-23T18:43:32.862Z,50.15
2023-01-23T18:46:16.160Z,38.53
2023-01-23T18:48:49.806Z,45.17
2023-01-23T18:51:25.730Z,40.33
2023-01-23T18:54:01.218Z,41.88
2023-01-23T18:56:50.767Z,39.30
2023-01-23T18:59:32.415Z,48.10
2023-01-23T19:02:14.710Z,50.55
2023-01-23T19:04:52.312Z,36.53
2023-01-23T19:07:25.380Z,33.17
2023-01-23T19:09:58.558Z,50.35
2023-01-23T19:12:36.385Z,49.95
2023-01-23T19:15:12.239Z,30.75
2023-01-23T19:17:45.674Z,37.67
2023-01-23T19:20:27.061Z,25.45
2023-01-23T19:23:12.412Z,38.85
2023-01-23T19:25:48.235Z,31.08
2023-01-23T19:28:21.269Z,53.38
2023-01-23T19:30:53.908Z,52.63
2023-01-23T19:33:26.746Z,37.08
2023-01-23T19:36:00.123Z,50.25
2023-01-23T19:38:33.020Z,46.70
2023-01-23T19:41:06.334Z,34.50
2023-01-23T19:43:39.365Z,36.80
2023-01-23T19:46:11.956Z,24.55
2023-01-23T19:48:44.911Z,28.42
2023-01-23T19:51:18.738Z,40.55
2023-01-23T19:53:51.640Z,36.00
2023-01-23T19:56:24.228Z,37.47
2023-01-23T19:58:57.027Z,46.75
2023-01-23T20:01:41.460Z,25.58
2023-01-23T20:04:20.281Z,43.20
2023-01-23T20:06:52.961Z,35.00
2023-01-23T20:09:25.948Z,29.80
2023-01-23T20:11:58.424Z,21.50
2023-01-23T20:14:31.319Z,29.23
2023-01-23T20:17:03.901Z,29.38
2023-01-23T20:19:38.818Z,32.38
2023-01-23T20:22:11.310Z,31.35
2023-01-23T20:24:44.227Z,37.33
2023-01-23T20:27:16.769Z,39.20
2023-01-23T20:29:52.621Z,37.58
2023-01-23T20:32:25.094Z,44.33
2023-01-23T20:34:58.570Z,37.28
2023-01-23T20:37:31.175Z,29.42
2023-01-23T20:40:04.358Z,23.45
2023-01-23T20:42:36.841Z,30.27
2023-01-23T20:45:09.929Z,51.00
2023-01-23T20:47:42.531Z,55.25
2023-01-23T20:50:15.605Z,35.53
2023-01-23T20:53:06.639Z,32.13
2023-01-23T20:55:39.572Z,32.55
2023-01-23T20:58:30.875Z,31.67
2023-01-23T21:01:04.105Z,31.35
2023-01-23T21:03:36.845Z,40.00
2023-01-23T21:06:10.754Z,44.13
2023-01-23T21:08:43.605Z,29.08
2023-01-23T21:11:17.965Z,31.75
2023-01-23T21:13:51.340Z,44.00
2023-01-23T21:16:24.269Z,32.42
2023-01-23T21:18:57.015Z,31.50
2023-01-23T21:21:30.111Z,38.95
2023-01-23T21:24:02.652Z,36.53
2023-01-23T21:26:35.631Z,41.42
2023-01-23T21:29:08.672Z,33.17
2023-01-23T21:31:42.379Z,27.42
2023-01-23T21:34:15.001Z,37.92
2023-01-23T21:36:47.930Z,31.75
2023-01-23T21:39:22.058Z,30.63
2023-01-23T21:41:55.000Z,31.55
2023-01-23T21:44:27.580Z,26.58
2023-01-23T21:47:00.435Z,30.65
2023-01-23T21:49:32.969Z,23.70
2023-01-23T21:52:06.008Z,29.30
2023-01-23T21:54:41.838Z,36.58
2023-01-23T21:57:14.722Z,37.72
2023-01-23T22:00:07.180Z,26.20
2023-01-23T22:02:46.021Z,23.25
2023-01-23T22:05:19.056Z,22.65
2023-01-23T22:07:52.230Z,28.40
2023-01-23T22:10:24.823Z,22.75
2023-01-23T22:12:57.881Z,20.85
2023-01-23T22:15:30.410Z,18.48
2023-01-23T22:18:03.654Z,18.25
2023-01-23T22:20:37.980Z,24.95
2023-01-23T22:23:10.982Z,24.25
2023-01-23T22:25:43.464Z,22.60
2023-01-23T22:28:16.781Z,19.42
2023-01-23T22:30:49.450Z,16.70
2023-01-23T22:33:24.038Z,23.52
2023-01-23T22:35:58.131Z,22.05
2023-01-23T22:38:31.029Z,22.20
2023-01-23T22:41:04.850Z,16.80
2023-01-23T22:43:37.671Z,16.90
2023-01-23T22:46:14.607Z,14.00
2023-01-23T22:48:47.491Z,19.77
2023-01-23T22:51:24.385Z,24.58
2023-01-23T22:53:58.320Z,15.02
2023-01-23T22:56:31.743Z,12.68
2023-01-23T22:59:04.682Z,17.73
2023-01-23T23:01:37.301Z,18.83
2023-01-23T23:04:10.626Z,17.52
2023-01-23T23:06:43.213Z,15.95
2023-01-23T23:09:16.204Z,23.75
2023-01-23T23:11:50.458Z,22.25
2023-01-23T23:14:23.332Z,17.88
2023-01-23T23:16:55.871Z,22.55
2023-01-23T23:19:28.907Z,17.50
2023-01-23T23:22:01.403Z,22.23
2023-01-23T23:24:34.263Z,20.25
2023-01-23T23:27:06.846Z,26.85
2023-01-23T23:29:39.846Z,18.02
2023-01-23T23:32:12.488Z,22.33
2023-01-23T23:34:45.341Z,28.48
2023-01-23T23:37:17.913Z,21.20
2023-01-23T23:39:50.924Z,15.95
2023-01-23T23:42:23.393Z,23.95
2023-01-23T23:44:56.320Z,25.13
2023-01-23T23:47:28.835Z,22.95
2023-01-23T23:50:01.747Z,20.58
2023-01-23T23:52:36.014Z,18.70
2023-01-23T23:55:09.675Z,12.15
2023-01-23T23:57:42.520Z,15.35
